sensor_id;sensor_type;location;lat;lon;timestamp;pressure;altitude;pressure_sealevel;temperature;humidity
46379;BME280;32084;42.254;22.744;2023-02-12T00:00:56;96190.41;;;-2.84;61.59
46379;BME280;32084;42.254;22.744;2023-02-12T00:03:22;96177.66;;;-3.19;62.00
46379;BME280;32084;42.254;22.744;2023-02-12T00:05:48;96185.63;;;-3.23;62.53
46379;BME280;32084;42.254;22.744;2023-02-12T00:08:14;96180.19;;;-3.17;62.74
46379;BME280;32084;42.254;22.744;2023-02-12T00:10:41;96182.34;;;-3.03;62.34
46379;BME280;32084;42.254;22.744;2023-02-12T00:13:08;96190.66;;;-3.17;62.73
46379;BME280;32084;42.254;22.744;2023-02-12T00:15:37;96197.97;;;-3.27;63.25
46379;BME280;32084;42.254;22.744;2023-02-12T00:18:03;96188.16;;;-3.20;62.92
46379;BME280;32084;42.254;22.744;2023-02-12T00:20:29;96196.94;;;-3.23;62.86
46379;BME280;32084;42.254;22.744;2023-02-12T00:22:55;96197.34;;;-3.34;63.24
46379;BME280;32084;42.254;22.744;2023-02-12T00:25:21;96200.84;;;-3.61;63.78
46379;BME280;32084;42.254;22.744;2023-02-12T00:27:47;96201.03;;;-3.67;64.16
46379;BME280;32084;42.254;22.744;2023-02-12T00:30:13;96207.06;;;-3.65;64.05
46379;BME280;32084;42.254;22.744;2023-02-12T00:32:39;96207.59;;;-3.82;64.27
46379;BME280;32084;42.254;22.744;2023-02-12T00:35:05;96211.84;;;-3.78;63.98
46379;BME280;32084;42.254;22.744;2023-02-12T00:37:31;96202.59;;;-3.62;63.53
46379;BME280;32084;42.254;22.744;2023-02-12T00:39:57;96210.53;;;-3.38;62.79
46379;BME280;32084;42.254;22.744;2023-02-12T00:42:23;96216.78;;;-3.42;63.27
46379;BME280;32084;42.254;22.744;2023-02-12T00:44:49;96208.09;;;-3.43;63.78
46379;BME280;32084;42.254;22.744;2023-02-12T00:47:15;96202.75;;;-3.40;63.70
46379;BME280;32084;42.254;22.744;2023-02-12T00:49:41;96204.38;;;-3.62;63.26
46379;BME280;32084;42.254;22.744;2023-02-12T00:52:07;96204.50;;;-3.95;63.99
46379;BME280;32084;42.254;22.744;2023-02-12T00:54:33;96200.66;;;-3.83;64.62
46379;BME280;32084;42.254;22.744;2023-02-12T00:56:59;96194.53;;;-3.82;63.90
46379;BME280;32084;42.254;22.744;2023-02-12T00:59:25;96187.75;;;-3.88;64.06
46379;BME280;32084;42.254;22.744;2023-02-12T01:01:52;96189.94;;;-4.02;64.39
46379;BME280;32084;42.254;22.744;2023-02-12T01:04:19;96187.31;;;-4.30;64.12
46379;BME280;32084;42.254;22.744;2023-02-12T01:06:45;96174.91;;;-4.24;64.80
46379;BME280;32084;42.254;22.744;2023-02-12T01:09:11;96174.84;;;-4.21;65.11
46379;BME280;32084;42.254;22.744;2023-02-12T01:11:37;96178.78;;;-4.07;64.46
46379;BME280;32084;42.254;22.744;2023-02-12T01:14:04;96169.16;;;-4.05;64.06
46379;BME280;32084;42.254;22.744;2023-02-12T01:16:30;96171.13;;;-4.14;63.79
46379;BME280;32084;42.254;22.744;2023-02-12T01:19:01;96170.06;;;-4.08;64.12
46379;BME280;32084;42.254;22.744;2023-02-12T01:21:29;96173.16;;;-3.95;64.04
46379;BME280;32084;42.254;22.744;2023-02-12T01:23:55;96163.50;;;-3.93;63.69
46379;BME280;32084;42.254;22.744;2023-02-12T01:26:22;96160.31;;;-4.01;64.39
46379;BME280;32084;42.254;22.744;2023-02-12T01:28:49;96159.06;;;-4.18;64.45
46379;BME280;32084;42.254;22.744;2023-02-12T01:31:19;96151.63;;;-4.60;64.92
46379;BME280;32084;42.254;22.744;2023-02-12T01:33:46;96150.84;;;-4.63;65.61
46379;BME280;32084;42.254;22.744;2023-02-12T01:36:13;96148.16;;;-4.60;65.75
46379;BME280;32084;42.254;22.744;2023-02-12T01:38:39;96144.38;;;-4.50;65.43
46379;BME280;32084;42.254;22.744;2023-02-12T01:41:06;96142.63;;;-4.49;65.09
46379;BME280;32084;42.254;22.744;2023-02-12T01:43:33;96151.16;;;-4.44;65.88
46379;BME280;32084;42.254;22.744;2023-02-12T01:45:59;96146.59;;;-4.36;64.97
46379;BME280;32084;42.254;22.744;2023-02-12T01:48:26;96153.94;;;-4.21;65.17
46379;BME280;32084;42.254;22.744;2023-02-12T01:50:53;96156.91;;;-4.33;65.63
46379;BME280;32084;42.254;22.744;2023-02-12T01:53:21;96164.47;;;-4.24;65.11
46379;BME280;32084;42.254;22.744;2023-02-12T01:55:49;96161.66;;;-4.18;65.21
46379;BME280;32084;42.254;22.744;2023-02-12T01:58:17;96154.88;;;-4.23;65.75
46379;BME280;32084;42.254;22.744;2023-02-12T02:00:43;96144.56;;;-4.56;66.32
46379;BME280;32084;42.254;22.744;2023-02-12T02:03:09;96155.28;;;-4.67;66.89
46379;BME280;32084;42.254;22.744;2023-02-12T02:08:20;96173.72;;;-4.72;67.05
46379;BME280;32084;42.254;22.744;2023-02-12T02:10:47;96181.41;;;-4.67;66.98
46379;BME280;32084;42.254;22.744;2023-02-12T02:13:13;96171.84;;;-4.38;66.82
46379;BME280;32084;42.254;22.744;2023-02-12T02:15:58;96174.59;;;-4.13;65.66
46379;BME280;32084;42.254;22.744;2023-02-12T02:30:59;96152.94;;;-4.45;67.01
46379;BME280;32084;42.254;22.744;2023-02-12T02:33:37;96152.13;;;-4.19;66.08
46379;BME280;32084;42.254;22.744;2023-02-12T02:41:19;96152.94;;;-3.88;65.29
46379;BME280;32084;42.254;22.744;2023-02-12T02:43:49;96143.06;;;-4.07;66.24
46379;BME280;32084;42.254;22.744;2023-02-12T02:46:19;96152.78;;;-4.12;66.70
46379;BME280;32084;42.254;22.744;2023-02-12T02:49:06;96155.88;;;-3.99;66.89
46379;BME280;32084;42.254;22.744;2023-02-12T02:51:36;96151.47;;;-3.97;66.72
46379;BME280;32084;42.254;22.744;2023-02-12T02:56:40;96166.38;;;-4.29;68.19
46379;BME280;32084;42.254;22.744;2023-02-12T02:59:09;96157.09;;;-4.39;66.84
46379;BME280;32084;42.254;22.744;2023-02-12T03:01:38;96149.84;;;-4.59;67.26
46379;BME280;32084;42.254;22.744;2023-02-12T03:04:28;96157.16;;;-4.41;66.93
46379;BME280;32084;42.254;22.744;2023-02-12T03:09:20;96164.41;;;-3.93;66.62
46379;BME280;32084;42.254;22.744;2023-02-12T03:11:47;96168.56;;;-3.87;67.23
46379;BME280;32084;42.254;22.744;2023-02-12T03:14:22;96161.06;;;-3.98;67.55
46379;BME280;32084;42.254;22.744;2023-02-12T03:16:57;96166.16;;;-3.95;66.42
46379;BME280;32084;42.254;22.744;2023-02-12T03:19:26;96177.00;;;-3.79;65.85
46379;BME280;32084;42.254;22.744;2023-02-12T03:21:59;96169.94;;;-3.75;65.83
46379;BME280;32084;42.254;22.744;2023-02-12T03:29:37;96177.53;;;-3.67;66.00
46379;BME280;32084;42.254;22.744;2023-02-12T03:32:07;96185.06;;;-3.58;66.38
46379;BME280;32084;42.254;22.744;2023-02-12T03:40:20;96186.22;;;-3.95;68.61
46379;BME280;32084;42.254;22.744;2023-02-12T03:43:21;96171.09;;;-3.85;68.20
46379;BME280;32084;42.254;22.744;2023-02-12T03:48:32;96166.91;;;-3.63;68.00
46379;BME280;32084;42.254;22.744;2023-02-12T03:51:03;96164.78;;;-3.78;68.30
46379;BME280;32084;42.254;22.744;2023-02-12T03:53:30;96157.06;;;-3.81;67.36
46379;BME280;32084;42.254;22.744;2023-02-12T03:56:01;96151.38;;;-3.67;66.99
46379;BME280;32084;42.254;22.744;2023-02-12T03:58:29;96162.34;;;-3.56;68.17
46379;BME280;32084;42.254;22.744;2023-02-12T04:00:58;96155.66;;;-3.40;66.67
46379;BME280;32084;42.254;22.744;2023-02-12T04:03:24;96137.50;;;-3.18;66.26
46379;BME280;32084;42.254;22.744;2023-02-12T04:05:51;96131.75;;;-3.04;65.23
46379;BME280;32084;42.254;22.744;2023-02-12T04:08:17;96142.44;;;-3.10;65.99
46379;BME280;32084;42.254;22.744;2023-02-12T04:13:20;96138.66;;;-3.01;65.93
46379;BME280;32084;42.254;22.744;2023-02-12T04:16:13;96140.25;;;-2.97;65.77
46379;BME280;32084;42.254;22.744;2023-02-12T04:18:39;96155.91;;;-2.96;67.45
46379;BME280;32084;42.254;22.744;2023-02-12T04:21:10;96158.06;;;-2.83;67.06
46379;BME280;32084;42.254;22.744;2023-02-12T04:26:15;96139.97;;;-2.66;67.29
46379;BME280;32084;42.254;22.744;2023-02-12T04:28:45;96146.09;;;-2.65;67.78
46379;BME280;32084;42.254;22.744;2023-02-12T04:31:22;96146.06;;;-2.89;68.76
46379;BME280;32084;42.254;22.744;2023-02-12T04:33:59;96147.72;;;-2.86;68.45
46379;BME280;32084;42.254;22.744;2023-02-12T04:36:34;96163.25;;;-2.82;68.25
46379;BME280;32084;42.254;22.744;2023-02-12T04:39:08;96145.00;;;-2.60;66.52
46379;BME280;32084;42.254;22.744;2023-02-12T04:41:37;96142.91;;;-2.50;66.86
46379;BME280;32084;42.254;22.744;2023-02-12T04:44:13;96138.31;;;-2.45;66.97
46379;BME280;32084;42.254;22.744;2023-02-12T04:46:39;96132.88;;;-2.39;66.50
46379;BME280;32084;42.254;22.744;2023-02-12T04:49:05;96137.81;;;-2.31;66.37
46379;BME280;32084;42.254;22.744;2023-02-12T04:51:31;96135.16;;;-2.29;65.71
46379;BME280;32084;42.254;22.744;2023-02-12T04:53:57;96133.13;;;-2.23;65.85
46379;BME280;32084;42.254;22.744;2023-02-12T04:56:23;96138.59;;;-2.29;67.21
46379;BME280;32084;42.254;22.744;2023-02-12T04:58:49;96141.22;;;-2.29;67.16
46379;BME280;32084;42.254;22.744;2023-02-12T05:01:15;96140.88;;;-2.43;67.19
46379;BME280;32084;42.254;22.744;2023-02-12T05:03:41;96140.38;;;-2.53;68.96
46379;BME280;32084;42.254;22.744;2023-02-12T05:06:07;96141.38;;;-2.56;69.87
46379;BME280;32084;42.254;22.744;2023-02-12T05:08:33;96146.47;;;-2.52;69.85
46379;BME280;32084;42.254;22.744;2023-02-12T05:11:03;96143.00;;;-2.53;70.24
46379;BME280;32084;42.254;22.744;2023-02-12T05:13:30;96158.94;;;-2.59;70.64
46379;BME280;32084;42.254;22.744;2023-02-12T05:15:56;96159.50;;;-2.51;69.86
46379;BME280;32084;42.254;22.744;2023-02-12T05:18:22;96154.72;;;-2.40;70.30
46379;BME280;32084;42.254;22.744;2023-02-12T05:20:57;96162.72;;;-2.43;70.57
46379;BME280;32084;42.254;22.744;2023-02-12T05:23:27;96166.97;;;-2.40;69.78
46379;BME280;32084;42.254;22.744;2023-02-12T05:25:56;96163.44;;;-2.39;70.14
46379;BME280;32084;42.254;22.744;2023-02-12T05:28:22;96168.28;;;-2.28;69.62
46379;BME280;32084;42.254;22.744;2023-02-12T05:30:48;96176.97;;;-2.28;69.67
46379;BME280;32084;42.254;22.744;2023-02-12T05:33:14;96169.84;;;-2.24;69.61
46379;BME280;32084;42.254;22.744;2023-02-12T05:35:40;96178.81;;;-2.30;69.57
46379;BME280;32084;42.254;22.744;2023-02-12T05:38:06;96176.19;;;-2.30;69.80
46379;BME280;32084;42.254;22.744;2023-02-12T05:40:32;96175.16;;;-2.26;69.78
46379;BME280;32084;42.254;22.744;2023-02-12T05:42:59;96183.19;;;-2.30;69.38
46379;BME280;32084;42.254;22.744;2023-02-12T05:45:25;96190.16;;;-2.29;69.81
46379;BME280;32084;42.254;22.744;2023-02-12T05:47:52;96176.19;;;-2.06;69.19
46379;BME280;32084;42.254;22.744;2023-02-12T05:50:19;96175.69;;;-1.94;68.64
46379;BME280;32084;42.254;22.744;2023-02-12T05:52:44;96179.72;;;-1.85;68.88
46379;BME280;32084;42.254;22.744;2023-02-12T05:55:10;96186.59;;;-1.83;69.17
46379;BME280;32084;42.254;22.744;2023-02-12T05:57:36;96184.13;;;-1.86;69.05
46379;BME280;32084;42.254;22.744;2023-02-12T06:00:03;96196.41;;;-1.88;69.26
46379;BME280;32084;42.254;22.744;2023-02-12T06:02:29;96204.50;;;-1.70;69.23
46379;BME280;32084;42.254;22.744;2023-02-12T06:04:55;96202.59;;;-1.67;68.62
46379;BME280;32084;42.254;22.744;2023-02-12T06:07:21;96213.56;;;-1.57;68.50
46379;BME280;32084;42.254;22.744;2023-02-12T06:09:48;96215.81;;;-1.70;69.43
46379;BME280;32084;42.254;22.744;2023-02-12T06:12:14;96225.88;;;-1.81;69.31
46379;BME280;32084;42.254;22.744;2023-02-12T06:14:40;96230.28;;;-1.82;69.53
46379;BME280;32084;42.254;22.744;2023-02-12T06:17:06;96234.72;;;-2.07;70.28
46379;BME280;32084;42.254;22.744;2023-02-12T06:19:32;96230.53;;;-2.35;71.87
46379;BME280;32084;42.254;22.744;2023-02-12T06:21:58;96239.75;;;-2.48;72.33
46379;BME280;32084;42.254;22.744;2023-02-12T06:24:24;96218.97;;;-2.78;72.64
46379;BME280;32084;42.254;22.744;2023-02-12T06:26:50;96238.53;;;-2.63;72.59
46379;BME280;32084;42.254;22.744;2023-02-12T06:29:17;96243.97;;;-2.44;71.18
46379;BME280;32084;42.254;22.744;2023-02-12T06:31:43;96224.97;;;-2.51;70.97
46379;BME280;32084;42.254;22.744;2023-02-12T06:34:10;96231.81;;;-2.47;71.27
46379;BME280;32084;42.254;22.744;2023-02-12T06:36:37;96232.47;;;-2.40;71.69
46379;BME280;32084;42.254;22.744;2023-02-12T06:39:04;96224.38;;;-2.34;71.26
46379;BME280;32084;42.254;22.744;2023-02-12T06:41:30;96223.97;;;-2.23;71.40
46379;BME280;32084;42.254;22.744;2023-02-12T06:43:56;96210.63;;;-1.93;69.94
46379;BME280;32084;42.254;22.744;2023-02-12T06:46:22;96207.22;;;-1.73;70.04
46379;BME280;32084;42.254;22.744;2023-02-12T06:48:51;96215.41;;;-1.59;69.71
46379;BME280;32084;42.254;22.744;2023-02-12T06:51:17;96206.97;;;-1.45;69.61
46379;BME280;32084;42.254;22.744;2023-02-12T06:53:46;96213.06;;;-1.45;69.74
46379;BME280;32084;42.254;22.744;2023-02-12T06:56:12;96213.78;;;-1.41;70.01
46379;BME280;32084;42.254;22.744;2023-02-12T06:58:40;96220.69;;;-1.39;69.58
46379;BME280;32084;42.254;22.744;2023-02-12T07:01:17;96221.81;;;-1.66;70.71
46379;BME280;32084;42.254;22.744;2023-02-12T07:03:53;96226.38;;;-1.71;70.81
46379;BME280;32084;42.254;22.744;2023-02-12T07:06:20;96223.28;;;-1.59;70.41
46379;BME280;32084;42.254;22.744;2023-02-12T07:08:46;96221.94;;;-1.47;69.91
46379;BME280;32084;42.254;22.744;2023-02-12T07:11:12;96223.97;;;-1.33;69.32
46379;BME280;32084;42.254;22.744;2023-02-12T07:13:39;96221.00;;;-1.46;69.55
46379;BME280;32084;42.254;22.744;2023-02-12T07:16:12;96204.94;;;-1.39;69.47
46379;BME280;32084;42.254;22.744;2023-02-12T07:18:39;96204.44;;;-1.26;68.85
46379;BME280;32084;42.254;22.744;2023-02-12T07:21:05;96201.88;;;-1.28;69.29
46379;BME280;32084;42.254;22.744;2023-02-12T07:23:32;96208.00;;;-1.07;69.41
46379;BME280;32084;42.254;22.744;2023-02-12T07:26:00;96200.94;;;-0.84;69.11
46379;BME280;32084;42.254;22.744;2023-02-12T07:28:26;96194.38;;;-0.94;69.54
46379;BME280;32084;42.254;22.744;2023-02-12T07:30:52;96189.50;;;-1.04;69.76
46379;BME280;32084;42.254;22.744;2023-02-12T07:33:19;96192.97;;;-0.83;68.83
46379;BME280;32084;42.254;22.744;2023-02-12T07:35:45;96189.91;;;-0.72;68.89
46379;BME280;32084;42.254;22.744;2023-02-12T07:38:11;96194.09;;;-0.68;68.70
46379;BME280;32084;42.254;22.744;2023-02-12T07:40:37;96191.06;;;-0.58;68.67
46379;BME280;32084;42.254;22.744;2023-02-12T07:43:03;96195.63;;;-0.43;68.78
46379;BME280;32084;42.254;22.744;2023-02-12T07:45:29;96194.44;;;-0.36;68.85
46379;BME280;32084;42.254;22.744;2023-02-12T07:47:55;96196.56;;;-0.25;68.02
46379;BME280;32084;42.254;22.744;2023-02-12T07:50:21;96200.13;;;-0.26;67.56
46379;BME280;32084;42.254;22.744;2023-02-12T07:52:48;96195.66;;;-0.24;66.65
46379;BME280;32084;42.254;22.744;2023-02-12T07:55:15;96198.72;;;-0.14;66.26
46379;BME280;32084;42.254;22.744;2023-02-12T07:57:41;96200.63;;;0.01;66.26
46379;BME280;32084;42.254;22.744;2023-02-12T08:00:07;96202.97;;;0.07;65.91
46379;BME280;32084;42.254;22.744;2023-02-12T08:02:33;96193.41;;;0.06;66.03
46379;BME280;32084;42.254;22.744;2023-02-12T08:04:59;96198.78;;;0.03;66.10
46379;BME280;32084;42.254;22.744;2023-02-12T08:07:25;96203.19;;;0.03;66.40
46379;BME280;32084;42.254;22.744;2023-02-12T08:09:51;96197.66;;;0.09;66.42
46379;BME280;32084;42.254;22.744;2023-02-12T08:12:18;96190.59;;;0.09;66.50
46379;BME280;32084;42.254;22.744;2023-02-12T08:14:44;96187.06;;;0.10;66.65
46379;BME280;32084;42.254;22.744;2023-02-12T08:17:10;96195.72;;;0.12;66.86
46379;BME280;32084;42.254;22.744;2023-02-12T08:19:36;96199.44;;;0.08;67.02
46379;BME280;32084;42.254;22.744;2023-02-12T08:22:02;96198.13;;;-0.02;66.82
46379;BME280;32084;42.254;22.744;2023-02-12T08:24:29;96199.06;;;-0.03;67.32
46379;BME280;32084;42.254;22.744;2023-02-12T08:26:55;96205.47;;;-0.09;67.44
46379;BME280;32084;42.254;22.744;2023-02-12T08:29:22;96209.53;;;-0.21;67.36
46379;BME280;32084;42.254;22.744;2023-02-12T08:31:49;96214.00;;;-0.23;67.88
46379;BME280;32084;42.254;22.744;2023-02-12T08:34:17;96211.03;;;-0.15;67.45
46379;BME280;32084;42.254;22.744;2023-02-12T08:36:43;96218.69;;;0.09;66.82
46379;BME280;32084;42.254;22.744;2023-02-12T08:39:09;96213.13;;;0.15;66.49
46379;BME280;32084;42.254;22.744;2023-02-12T08:41:36;96216.41;;;0.20;66.87
46379;BME280;32084;42.254;22.744;2023-02-12T08:44:03;96217.97;;;0.24;67.05
46379;BME280;32084;42.254;22.744;2023-02-12T08:46:30;96218.91;;;0.23;66.55
46379;BME280;32084;42.254;22.744;2023-02-12T08:48:58;96223.53;;;0.18;66.54
46379;BME280;32084;42.254;22.744;2023-02-12T08:51:28;96232.91;;;0.24;65.86
46379;BME280;32084;42.254;22.744;2023-02-12T08:53:57;96220.38;;;0.48;65.32
46379;BME280;32084;42.254;22.744;2023-02-12T08:56:24;96228.63;;;0.40;65.54
46379;BME280;32084;42.254;22.744;2023-02-12T08:58:51;96239.06;;;0.42;65.58
46379;BME280;32084;42.254;22.744;2023-02-12T09:01:18;96240.22;;;0.36;64.96
46379;BME280;32084;42.254;22.744;2023-02-12T09:03:44;96238.16;;;0.43;65.34
46379;BME280;32084;42.254;22.744;2023-02-12T09:06:11;96237.91;;;0.47;64.81
46379;BME280;32084;42.254;22.744;2023-02-12T09:08:37;96235.47;;;0.44;65.44
46379;BME280;32084;42.254;22.744;2023-02-12T09:11:08;96251.53;;;0.38;65.70
46379;BME280;32084;42.254;22.744;2023-02-12T09:13:35;96240.78;;;0.43;65.63
46379;BME280;32084;42.254;22.744;2023-02-12T09:16:02;96252.16;;;0.43;64.43
46379;BME280;32084;42.254;22.744;2023-02-12T09:18:28;96249.81;;;0.56;64.78
46379;BME280;32084;42.254;22.744;2023-02-12T09:20:58;96243.69;;;0.55;64.37
46379;BME280;32084;42.254;22.744;2023-02-12T09:23:25;96254.00;;;0.60;64.17
46379;BME280;32084;42.254;22.744;2023-02-12T09:25:51;96260.63;;;0.31;65.08
46379;BME280;32084;42.254;22.744;2023-02-12T09:28:17;96277.75;;;0.21;65.24
46379;BME280;32084;42.254;22.744;2023-02-12T09:30:43;96280.63;;;0.35;64.12
46379;BME280;32084;42.254;22.744;2023-02-12T09:33:09;96276.25;;;0.34;64.47
46379;BME280;32084;42.254;22.744;2023-02-12T09:35:36;96277.69;;;0.41;63.64
46379;BME280;32084;42.254;22.744;2023-02-12T09:38:02;96281.53;;;0.34;63.64
46379;BME280;32084;42.254;22.744;2023-02-12T09:43:14;96279.47;;;0.22;64.02
46379;BME280;32084;42.254;22.744;2023-02-12T09:51:09;96280.53;;;0.55;63.70
46379;BME280;32084;42.254;22.744;2023-02-12T09:53:36;96282.56;;;0.68;63.55
46379;BME280;32084;42.254;22.744;2023-02-12T09:56:13;96271.16;;;0.86;63.12
46379;BME280;32084;42.254;22.744;2023-02-12T10:01:10;96270.03;;;0.92;63.31
46379;BME280;32084;42.254;22.744;2023-02-12T10:03:36;96265.59;;;1.10;61.91
46379;BME280;32084;42.254;22.744;2023-02-12T10:06:03;96263.94;;;1.09;62.00
46379;BME280;32084;42.254;22.744;2023-02-12T10:13:49;96262.81;;;0.95;63.17
46379;BME280;32084;42.254;22.744;2023-02-12T10:16:31;96265.84;;;1.05;62.93
46379;BME280;32084;42.254;22.744;2023-02-12T10:26:28;96277.34;;;1.39;63.28
46379;BME280;32084;42.254;22.744;2023-02-12T10:28:56;96270.97;;;1.43;63.02
46379;BME280;32084;42.254;22.744;2023-02-12T10:31:28;96268.88;;;1.50;63.10
46379;BME280;32084;42.254;22.744;2023-02-12T10:33:55;96269.69;;;1.52;61.67
46379;BME280;32084;42.254;22.744;2023-02-12T10:41:36;96280.28;;;1.50;62.32
46379;BME280;32084;42.254;22.744;2023-02-12T10:44:04;96277.72;;;1.66;62.54
46379;BME280;32084;42.254;22.744;2023-02-12T10:46:30;96279.50;;;1.66;62.28
46379;BME280;32084;42.254;22.744;2023-02-12T10:48:56;96276.41;;;1.75;62.17
46379;BME280;32084;42.254;22.744;2023-02-12T10:53:55;96268.66;;;2.05;61.30
46379;BME280;32084;42.254;22.744;2023-02-12T10:56:21;96263.03;;;2.11;61.63
46379;BME280;32084;42.254;22.744;2023-02-12T10:58:53;96270.47;;;2.21;61.39
46379;BME280;32084;42.254;22.744;2023-02-12T11:01:22;96258.38;;;2.17;61.48
46379;BME280;32084;42.254;22.744;2023-02-12T11:03:51;96267.91;;;2.19;61.28
46379;BME280;32084;42.254;22.744;2023-02-12T11:06:18;96268.44;;;2.26;61.38
46379;BME280;32084;42.254;22.744;2023-02-12T11:08:45;96270.81;;;2.30;60.79
46379;BME280;32084;42.254;22.744;2023-02-12T11:11:21;96273.81;;;2.40;60.79
46379;BME280;32084;42.254;22.744;2023-02-12T11:16:27;96280.88;;;2.56;60.17
46379;BME280;32084;42.254;22.744;2023-02-12T11:19:04;96283.03;;;2.65;60.00
46379;BME280;32084;42.254;22.744;2023-02-12T11:21:31;96281.06;;;2.68;59.07
46379;BME280;32084;42.254;22.744;2023-02-12T11:23:58;96284.75;;;2.66;59.42
46379;BME280;32084;42.254;22.744;2023-02-12T11:26:43;96289.34;;;2.62;59.86
46379;BME280;32084;42.254;22.744;2023-02-12T11:29:22;96287.34;;;2.50;59.82
46379;BME280;32084;42.254;22.744;2023-02-12T11:32:01;96284.91;;;2.63;59.71
46379;BME280;32084;42.254;22.744;2023-02-12T11:34:28;96276.28;;;2.91;58.75
46379;BME280;32084;42.254;22.744;2023-02-12T11:36:54;96270.81;;;3.10;58.32
46379;BME280;32084;42.254;22.744;2023-02-12T11:42:04;96275.81;;;3.45;57.90
46379;BME280;32084;42.254;22.744;2023-02-12T11:44:33;96267.75;;;3.62;57.51
46379;BME280;32084;42.254;22.744;2023-02-12T11:47:02;96263.63;;;3.87;57.81
46379;BME280;32084;42.254;22.744;2023-02-12T11:49:36;96270.94;;;4.12;57.04
46379;BME280;32084;42.254;22.744;2023-02-12T11:52:04;96266.88;;;4.35;56.91
46379;BME280;32084;42.254;22.744;2023-02-12T11:54:38;96260.22;;;4.57;56.76
46379;BME280;32084;42.254;22.744;2023-02-12T11:57:05;96265.50;;;4.71;56.73
46379;BME280;32084;42.254;22.744;2023-02-12T11:59:35;96259.41;;;4.83;56.93
46379;BME280;32084;42.254;22.744;2023-02-12T12:04:36;96266.41;;;4.84;56.12
46379;BME280;32084;42.254;22.744;2023-02-12T12:07:05;96269.50;;;4.91;56.05
46379;BME280;32084;42.254;22.744;2023-02-12T12:13:17;96273.31;;;4.87;56.32
46379;BME280;32084;42.254;22.744;2023-02-12T12:15:48;96265.44;;;4.85;56.10
46379;BME280;32084;42.254;22.744;2023-02-12T12:24:14;96279.41;;;5.02;55.56
46379;BME280;32084;42.254;22.744;2023-02-12T12:26:43;96273.53;;;5.11;55.36
46379;BME280;32084;42.254;22.744;2023-02-12T12:29:19;96268.41;;;5.08;55.20
46379;BME280;32084;42.254;22.744;2023-02-12T12:32:10;96265.75;;;5.08;55.46
46379;BME280;32084;42.254;22.744;2023-02-12T12:34:35;96271.63;;;5.13;55.37
46379;BME280;32084;42.254;22.744;2023-02-12T12:47:19;96267.38;;;5.51;54.67
46379;BME280;32084;42.254;22.744;2023-02-12T12:49:50;96266.50;;;5.50;54.75
46379;BME280;32084;42.254;22.744;2023-02-12T12:52:28;96263.66;;;5.53;55.07
46379;BME280;32084;42.254;22.744;2023-02-12T12:58:00;96272.50;;;5.66;54.98
46379;BME280;32084;42.254;22.744;2023-02-12T13:00:35;96264.28;;;5.44;55.80
46379;BME280;32084;42.254;22.744;2023-02-12T13:10:59;96268.81;;;5.82;55.39
46379;BME280;32084;42.254;22.744;2023-02-12T13:13:33;96264.72;;;6.03;55.67
46379;BME280;32084;42.254;22.744;2023-02-12T13:28:45;96293.72;;;6.06;55.03
46379;BME280;32084;42.254;22.744;2023-02-12T13:31:13;96297.00;;;6.23;54.78
46379;BME280;32084;42.254;22.744;2023-02-12T13:33:42;96290.84;;;6.22;54.17
46379;BME280;32084;42.254;22.744;2023-02-12T13:36:10;96300.94;;;6.30;53.98
46379;BME280;32084;42.254;22.744;2023-02-12T13:38:39;96299.34;;;6.15;53.94
46379;BME280;32084;42.254;22.744;2023-02-12T13:41:08;96298.50;;;6.01;54.50
46379;BME280;32084;42.254;22.744;2023-02-12T13:43:38;96301.47;;;6.10;54.57
46379;BME280;32084;42.254;22.744;2023-02-12T13:51:45;96304.22;;;5.95;55.04
46379;BME280;32084;42.254;22.744;2023-02-12T13:59:58;96310.84;;;5.75;55.33
46379;BME280;32084;42.254;22.744;2023-02-12T14:04:45;96313.00;;;5.83;55.57
46379;BME280;32084;42.254;22.744;2023-02-12T14:07:12;96309.03;;;5.76;55.52
46379;BME280;32084;42.254;22.744;2023-02-12T14:09:40;96306.06;;;5.67;55.79
46379;BME280;32084;42.254;22.744;2023-02-12T14:12:11;96316.72;;;5.53;56.01
46379;BME280;32084;42.254;22.744;2023-02-12T14:14:40;96328.75;;;5.59;56.04
46379;BME280;32084;42.254;22.744;2023-02-12T14:19:54;96327.25;;;5.55;55.95
46379;BME280;32084;42.254;22.744;2023-02-12T14:24:52;96339.31;;;5.73;55.31
46379;BME280;32084;42.254;22.744;2023-02-12T14:27:21;96333.19;;;5.58;55.57
46379;BME280;32084;42.254;22.744;2023-02-12T14:30:02;96333.81;;;5.49;55.82
46379;BME280;32084;42.254;22.744;2023-02-12T14:37:51;96339.28;;;5.33;56.43
46379;BME280;32084;42.254;22.744;2023-02-12T14:43:02;96337.31;;;5.22;56.88
46379;BME280;32084;42.254;22.744;2023-02-12T14:45:35;96334.56;;;5.24;56.91
46379;BME280;32084;42.254;22.744;2023-02-12T14:48:02;96340.16;;;5.19;57.11
46379;BME280;32084;42.254;22.744;2023-02-12T14:50:38;96356.38;;;5.15;56.86
46379;BME280;32084;42.254;22.744;2023-02-12T14:53:20;96347.75;;;5.11;57.13
46379;BME280;32084;42.254;22.744;2023-02-12T14:55:48;96355.53;;;5.14;56.96
46379;BME280;32084;42.254;22.744;2023-02-12T14:58:17;96364.06;;;5.05;57.17
46379;BME280;32084;42.254;22.744;2023-02-12T15:00:44;96364.59;;;5.10;56.81
46379;BME280;32084;42.254;22.744;2023-02-12T15:05:50;96369.63;;;5.15;56.75
46379;BME280;32084;42.254;22.744;2023-02-12T15:10:56;96380.94;;;4.89;57.69
46379;BME280;32084;42.254;22.744;2023-02-12T15:13:26;96379.88;;;4.92;57.87
46379;BME280;32084;42.254;22.744;2023-02-12T15:15:58;96390.41;;;4.94;57.73
46379;BME280;32084;42.254;22.744;2023-02-12T15:21:05;96404.97;;;4.86;57.61
46379;BME280;32084;42.254;22.744;2023-02-12T15:23:37;96412.81;;;4.74;58.37
46379;BME280;32084;42.254;22.744;2023-02-12T15:26:08;96417.94;;;4.77;57.99
46379;BME280;32084;42.254;22.744;2023-02-12T15:28:38;96425.41;;;4.70;58.13
46379;BME280;32084;42.254;22.744;2023-02-12T15:31:05;96427.66;;;4.62;58.93
46379;BME280;32084;42.254;22.744;2023-02-12T15:33:39;96423.69;;;4.55;58.98
46379;BME280;32084;42.254;22.744;2023-02-12T15:36:08;96437.44;;;4.61;58.40
46379;BME280;32084;42.254;22.744;2023-02-12T15:38:37;96446.97;;;4.64;58.23
46379;BME280;32084;42.254;22.744;2023-02-12T15:41:08;96450.56;;;4.63;58.56
46379;BME280;32084;42.254;22.744;2023-02-12T15:43:38;96455.22;;;4.59;58.74